Snoqualmie Pass
Snoqualmie Pass
Latest observation 09/03 18:00 PDT
| Time (PDT) | Temp °F 3760' | Temp °F 3770' | Temp °F 3010' | RH % 3010' | Min mph 3760' | Spd mph 3760' | Gust mph 3760' | Dir ° 3760' | Pcp1 in 3010' | PcpSum in 3010' | 24Sno in 3010' | SnoHt in 3010' | Pres millibar 3010' |
|---|---|---|---|---|---|---|---|---|---|---|---|---|---|
| 09/03 18:00 | 45 | 8 | 48 | 91 | 10 | 20 | 30 | 219 | 0.02 | 0.17 | 0.0 | 0.0 | 1012 |
| 09/03 17:00 | 46 | 10 | 51 | 85 | 10 | 16 | 22 | 228 | 0.00 | 0.15 | 0.0 | 0.0 | 1011 |
| 09/03 16:00 | 47 | 12 | 54 | 75 | 3 | 10 | 20 | 217 | 0.02 | 0.15 | 0.0 | 0.0 | 1011 |
| 09/03 15:00 | 48 | 11 | 54 | 72 | 4 | 9 | 12 | 228 | 0.00 | 0.13 | 0.0 | 0.0 | 1011 |
| 09/03 14:00 | 47 | 12 | 53 | 72 | 2 | 8 | 14 | 220 | 0.00 | 0.13 | 0.0 | 0.0 | 1011 |
| 09/03 13:00 | 49 | 11 | 54 | 60 | 0 | 3 | 7 | 130 | 0.00 | 0.13 | 0.0 | 0.0 | 1011 |
| 09/03 12:00 | 50 | 11 | 53 | 68 | 0 | 2 | 10 | 129 | 0.00 | 0.13 | 0.0 | 0.0 | 1011 |
| 09/03 11:00 | 48 | 10 | 53 | 64 | 0 | 3 | 11 | 121 | 0.00 | 0.13 | 0.0 | 0.0 | 1011 |
| 09/03 10:00 | 45 | 9 | 49 | 80 | 0 | 2 | 5 | 101 | 0.00 | 0.13 | 0.0 | 0.0 | 1011 |
| 09/03 09:00 | 44 | 7 | 46 | 95 | 0 | 3 | 7 | 103 | 0.00 | 0.13 | 0.0 | 0.0 | 1011 |
| 09/03 08:00 | 44 | 6 | 44 | 99 | 2 | 3 | 5 | 98 | 0.00 | 0.13 | 0.0 | 0.0 | 1011 |
| 09/03 07:00 | 45 | 5 | 42 | 98 | 0 | 3 | 6 | 73 | 0.00 | 0.13 | 0.0 | 0.0 | 1011 |
| 09/03 06:00 | 45 | 5 | 42 | 99 | 0 | 4 | 11 | 255 | 0.00 | 0.13 | 0.0 | 0.0 | 1010 |
| 09/03 05:00 | 45 | 5 | 42 | 99 | 0 | 2 | 8 | 359 | 0.00 | 0.13 | 0.0 | 0.0 | 1010 |
| 09/03 04:00 | 45 | 5 | 42 | 98 | 0 | 2 | 6 | 333 | 0.00 | 0.13 | 0.0 | 0.0 | 1010 |
| 09/03 03:00 | 45 | 5 | 43 | 98 | 0 | 3 | 7 | 271 | 0.00 | 0.13 | 0.0 | 0.0 | 1010 |
| 09/03 02:00 | 44 | 5 | 42 | 98 | 0 | 3 | 6 | 271 | 0.00 | 0.13 | 0.0 | 0.0 | 1010 |
| 09/03 01:00 | 44 | 6 | 43 | 98 | 0 | 3 | 7 | 282 | 0.00 | 0.13 | 0.0 | 0.0 | 1010 |
| 09/03 00:00 | 45 | 6 | 45 | 97 | 0 | 3 | 12 | 229 | 0.00 | 0.13 | 0.0 | 0.0 | 1010 |
| 09/02 23:00 | 45 | 6 | 46 | 98 | 0 | 4 | 9 | 255 | 0.00 | 0.13 | 0.0 | 0.0 | 1010 |
| 09/02 22:00 | 44 | 6 | 47 | 97 | 0 | 3 | 6 | 231 | 0.01 | 0.13 | 0.0 | 0.0 | 1010 |
| 09/02 21:00 | 45 | 7 | 47 | 97 | 1 | 10 | 22 | 229 | 0.02 | 0.12 | 0.0 | 0.0 | 1009 |
| 09/02 20:00 | 46 | 9 | 48 | 91 | 7 | 29 | 41 | 225 | 0.09 | 0.10 | 0.0 | 0.0 | 1009 |
| 09/02 19:00 | 49 | 9 | 51 | 96 | 1 | 6 | 10 | 108 | 0.01 | 0.01 | 0.0 | 0.0 | 1008 |

